Time;durP1;ratioP1;P1;durP2;ratioP2;P2;SDS_P1;SDS_P2;PMS_P1;PMS_P2;Temp;Humidity;BMP_temperature;BMP_pressure;BME280_temperature;BME280_humidity;BME280_pressure;Samples;Min_cycle;Max_cycle;Signal;HPM_P1;HPM_P2
2023/05/26 00:00:57;;;;;;;31.05;5.10;;;;;;;11.24;79.92;102495.72;4971718;28;20529;-69
2023/05/26 00:03:23;;;;;;;26.15;5.03;;;;;;;11.18;80.32;102488.41;4965607;28;20050;-69
2023/05/26 00:05:48;;;;;;;19.27;4.57;;;;;;;11.13;80.52;102493.13;4966591;28;20152;-68
2023/05/26 00:08:14;;;;;;;34.75;5.32;;;;;;;11.08;80.72;102499.50;4963394;28;20053;-68
2023/05/26 00:10:39;;;;;;;30.98;5.30;;;;;;;10.97;81.29;102496.06;4962087;28;20035;-69
2023/05/26 00:13:05;;;;;;;28.50;5.32;;;;;;;10.94;81.80;102506.69;4963389;28;20400;-68
2023/05/26 00:15:30;;;;;;;37.60;5.80;;;;;;;10.91;81.45;102505.97;4961894;28;20311;-68
2023/05/26 00:18:01;;;;;;;31.05;6.65;;;;;;;10.87;82.07;102504.56;4942436;28;20042;-68
2023/05/26 00:20:27;;;;;;;26.77;4.43;;;;;;;10.88;82.44;102505.38;4939710;28;20553;-68
2023/05/26 00:22:53;;;;;;;31.13;5.70;;;;;;;10.89;82.42;102507.88;4937725;28;20125;-70
2023/05/26 00:25:18;;;;;;;28.40;4.65;;;;;;;10.85;82.35;102511.63;4959833;28;20499;-68
2023/05/26 00:27:44;;;;;;;26.98;5.15;;;;;;;10.84;82.76;102511.75;4975708;28;20022;-69
2023/05/26 00:30:10;;;;;;;23.65;4.25;;;;;;;10.83;82.67;102510.94;4959532;28;20054;-68
2023/05/26 00:32:35;;;;;;;29.65;4.93;;;;;;;10.75;82.69;102515.03;4962013;28;20499;-68
2023/05/26 00:35:02;;;;;;;31.10;4.75;;;;;;;10.74;82.75;102510.78;4948379;28;20050;-69
2023/05/26 00:37:27;;;;;;;29.25;5.60;;;;;;;10.65;83.00;102510.53;4961310;28;20018;-69
2023/05/26 00:39:52;;;;;;;25.90;4.82;;;;;;;10.61;83.29;102516.06;4965333;28;20042;-68
2023/05/26 00:42:18;;;;;;;27.77;5.13;;;;;;;10.54;83.60;102515.69;4977415;28;20042;-68
2023/05/26 00:44:44;;;;;;;25.65;4.60;;;;;;;10.47;83.97;102512.75;4959620;28;20039;-69
2023/05/26 00:47:10;;;;;;;30.20;5.07;;;;;;;10.45;84.20;102514.63;4964159;28;20104;-69
2023/05/26 00:49:35;;;;;;;30.88;5.53;;;;;;;10.44;84.24;102512.97;4979423;28;20039;-69
2023/05/26 00:52:01;;;;;;;21.67;4.28;;;;;;;10.43;84.22;102507.88;4978323;28;20039;-69
2023/05/26 00:54:27;;;;;;;25.33;5.00;;;;;;;10.40;83.86;102516.72;4974639;28;20124;-69
2023/05/26 00:56:54;;;;;;;20.60;5.28;;;;;;;10.36;84.53;102511.84;4965425;28;20023;-69
2023/05/26 00:59:21;;;;;;;34.38;4.93;;;;;;;10.30;84.68;102507.91;4962205;28;20687;-68
2023/05/26 01:01:49;;;;;;;18.90;4.30;;;;;;;10.26;84.67;102507.31;4978802;28;20030;-68
2023/05/26 01:04:15;;;;;;;28.38;4.28;;;;;;;10.27;85.09;102513.34;4962806;28;20046;-68
2023/05/26 01:06:44;;;;;;;27.75;4.40;;;;;;;10.25;85.28;102510.03;4976065;28;20045;-68
2023/05/26 01:09:13;;;;;;;27.17;4.18;;;;;;;10.20;85.20;102512.94;4949002;28;20085;-68
2023/05/26 01:12:03;;;;;;;15.75;4.65;;;;;;;10.18;85.33;102511.41;4978179;28;20749;-68
2023/05/26 01:14:39;;;;;;;28.25;5.43;;;;;;;10.22;85.10;102518.84;4961736;28;20078;-68
2023/05/26 01:17:20;;;;;;;31.63;5.63;;;;;;;10.12;85.65;102518.69;4948979;28;20038;-68
2023/05/26 01:20:15;;;;;;;33.47;5.70;;;;;;;10.07;85.78;102522.56;4973217;28;20072;-68
2023/05/26 01:22:48;;;;;;;27.98;4.93;;;;;;;10.02;86.61;102522.91;4965684;28;20077;-68
2023/05/26 01:25:46;;;;;;;29.75;4.88;;;;;;;9.97;86.27;102524.16;4948006;28;20049;-68
2023/05/26 01:28:26;;;;;;;28.17;4.47;;;;;;;9.91;86.97;102528.03;4976091;28;20057;-68
2023/05/26 01:30:53;;;;;;;24.83;4.90;;;;;;;9.89;87.02;102527.31;4977493;28;20093;-68
2023/05/26 01:33:19;;;;;;;22.63;5.03;;;;;;;9.87;87.20;102534.34;4950547;28;20042;-68
2023/05/26 01:35:45;;;;;;;28.40;4.90;;;;;;;9.80;86.86;102531.38;4962476;28;20022;-68
2023/05/26 01:38:11;;;;;;;27.50;5.25;;;;;;;9.80;87.15;102531.38;4976771;28;20574;-68
2023/05/26 01:40:39;;;;;;;26.63;6.05;;;;;;;9.77;87.52;102526.41;4976641;28;20026;-68
2023/05/26 01:43:47;;;;;;;30.13;4.85;;;;;;;9.71;87.61;102530.25;4963231;28;20066;-68
2023/05/26 01:46:26;;;;;;;29.20;4.70;;;;;;;9.79;87.46;102526.28;4943748;28;20455;-68
2023/05/26 01:48:55;;;;;;;22.02;4.75;;;;;;;9.70;87.77;102526.03;4972030;28;20042;-68
2023/05/26 01:51:21;;;;;;;31.23;5.55;;;;;;;9.69;87.75;102523.53;4964084;28;20517;-68
2023/05/26 01:53:51;;;;;;;18.65;4.00;;;;;;;9.64;88.00;102528.19;4945883;28;20039;-68
2023/05/26 01:56:18;;;;;;;30.88;6.45;;;;;;;9.58;88.48;102524.28;4960031;28;20031;-68
2023/05/26 01:58:45;;;;;;;29.10;5.40;;;;;;;9.54;88.75;102525.44;4969785;28;20077;-68
2023/05/26 02:01:11;;;;;;;26.02;4.40;;;;;;;9.52;88.64;102528.13;4965005;28;20034;-68
2023/05/26 02:03:36;;;;;;;26.00;4.70;;;;;;;9.50;88.71;102540.34;4975465;28;20485;-68
2023/05/26 02:06:03;;;;;;;25.63;4.88;;;;;;;9.41;88.94;102530.63;4945647;28;20030;-68
2023/05/26 02:08:29;;;;;;;24.45;4.60;;;;;;;9.33;89.22;102525.97;4984395;28;20109;-68
2023/05/26 02:10:54;;;;;;;32.15;4.93;;;;;;;9.31;89.55;102529.63;4953949;28;20478;-68
2023/05/26 02:13:20;;;;;;;35.90;6.93;;;;;;;9.34;89.36;102531.97;4967929;28;20057;-68
2023/05/26 02:15:45;;;;;;;25.02;4.70;;;;;;;9.33;89.68;102528.56;4968519;28;20030;-68
2023/05/26 02:18:11;;;;;;;20.50;4.75;;;;;;;9.35;89.39;102531.06;4969370;28;20038;-68
2023/05/26 02:20:38;;;;;;;30.08;4.95;;;;;;;9.25;89.76;102530.03;4965689;28;20325;-68
2023/05/26 02:23:04;;;;;;;26.42;4.43;;;;;;;9.19;89.88;102539.03;4969122;28;20397;-68
2023/05/26 02:25:30;;;;;;;24.90;4.95;;;;;;;9.15;90.67;102533.25;4968098;28;20058;-68
2023/05/26 02:27:55;;;;;;;23.73;3.90;;;;;;;9.15;90.56;102530.69;4979152;28;20497;-68
2023/05/26 02:30:21;;;;;;;29.50;4.93;;;;;;;9.18;90.64;102539.97;4969801;28;20026;-68
2023/05/26 02:32:46;;;;;;;26.52;5.25;;;;;;;9.19;90.53;102538.22;4968404;28;20038;-68
2023/05/26 02:35:12;;;;;;;19.35;4.45;;;;;;;9.19;90.77;102544.22;4967987;28;20077;-68
2023/05/26 02:37:38;;;;;;;23.60;4.40;;;;;;;9.13;90.86;102545.44;4971163;28;20026;-68
2023/05/26 02:40:06;;;;;;;26.00;4.80;;;;;;;9.08;91.18;102537.19;4967915;28;20046;-71
2023/05/26 02:42:33;;;;;;;21.95;5.15;;;;;;;9.07;91.06;102539.88;4970596;28;20069;-71
2023/05/26 02:44:58;;;;;;;22.35;4.53;;;;;;;9.06;90.80;102541.66;4964716;28;20065;-68
2023/05/26 02:47:24;;;;;;;23.80;4.28;;;;;;;9.01;90.88;102546.28;4962428;28;20042;-68
2023/05/26 02:49:51;;;;;;;28.65;5.35;;;;;;;8.96;90.86;102543.19;4982539;28;20046;-68
2023/05/26 02:52:16;;;;;;;29.40;5.25;;;;;;;8.89;91.29;102541.94;4969580;28;20042;-68
2023/05/26 02:54:41;;;;;;;22.20;4.53;;;;;;;8.87;91.50;102536.03;4970340;28;20418;-71
2023/05/26 02:57:07;;;;;;;34.60;4.88;;;;;;;8.83;91.59;102540.56;4966265;28;20038;-68
2023/05/26 02:59:32;;;;;;;25.52;5.65;;;;;;;8.85;92.22;102540.47;4980874;28;20259;-68
2023/05/26 03:01:58;;;;;;;32.78;6.22;;;;;;;8.82;91.83;102544.13;4965353;28;20034;-68
2023/05/26 03:04:23;;;;;;;30.05;4.85;;;;;;;8.81;92.28;102542.44;4978518;28;20063;-68
2023/05/26 03:06:49;;;;;;;32.92;5.32;;;;;;;8.80;92.09;102533.03;4980008;28;20041;-68
2023/05/26 03:09:17;;;;;;;21.95;4.72;;;;;;;8.74;92.51;102534.28;4968102;28;20084;-68
2023/05/26 03:11:43;;;;;;;31.15;5.07;;;;;;;8.70;92.45;102540.59;4982280;28;20401;-68
2023/05/26 03:14:08;;;;;;;32.10;5.28;;;;;;;8.64;92.94;102538.38;4981867;28;20504;-68
2023/05/26 03:16:34;;;;;;;31.48;5.30;;;;;;;8.60;93.35;102542.09;4969077;28;20018;-68
2023/05/26 03:19:00;;;;;;;26.85;4.78;;;;;;;8.54;93.62;102539.94;4963940;28;20050;-68
2023/05/26 03:21:27;;;;;;;27.15;6.20;;;;;;;8.52;93.63;102542.59;4950629;28;20026;-68
2023/05/26 03:23:53;;;;;;;28.80;4.90;;;;;;;8.48;93.78;102538.56;4976879;28;20121;-71
2023/05/26 03:26:18;;;;;;;26.58;5.88;;;;;;;8.43;94.11;102544.97;4965106;28;20057;-68
2023/05/26 03:28:44;;;;;;;38.45;5.72;;;;;;;8.36;94.22;102545.34;4980881;28;20105;-68
2023/05/26 03:31:09;;;;;;;30.33;5.00;;;;;;;8.35;94.44;102546.25;4978596;28;20042;-68
2023/05/26 03:33:35;;;;;;;37.42;6.18;;;;;;;8.38;94.50;102553.81;4968192;28;20042;-68
2023/05/26 03:36:01;;;;;;;25.73;5.45;;;;;;;8.35;94.74;102548.03;4978788;28;20222;-68
2023/05/26 03:38:27;;;;;;;38.70;5.07;;;;;;;8.28;94.87;102542.41;4965751;28;20275;-68
2023/05/26 03:40:54;;;;;;;28.13;4.88;;;;;;;8.28;95.19;102549.34;4981364;28;20026;-70
2023/05/26 03:43:21;;;;;;;28.92;4.85;;;;;;;8.17;95.48;102552.59;4967000;28;20525;-71
2023/05/26 03:45:46;;;;;;;41.55;5.30;;;;;;;8.09;96.35;102549.69;4961258;28;20042;-71
2023/05/26 03:48:13;;;;;;;41.72;5.70;;;;;;;8.12;96.12;102550.31;4962100;28;20042;-71
2023/05/26 03:50:41;;;;;;;27.40;5.25;;;;;;;8.09;96.46;102545.34;4964764;28;20030;-71
2023/05/26 03:53:07;;;;;;;39.45;7.43;;;;;;;8.04;96.81;102549.13;4979734;28;20045;-71
2023/05/26 03:55:33;;;;;;;58.33;7.18;;;;;;;8.09;96.56;102554.84;4950211;28;20015;-71
2023/05/26 03:57:59;;;;;;;39.50;7.43;;;;;;;8.05;96.72;102553.38;4964978;28;20049;-71
2023/05/26 04:00:30;;;;;;;37.63;5.38;;;;;;;7.99;97.45;102555.41;4964858;28;20116;-71
2023/05/26 04:02:55;;;;;;;34.92;6.68;;;;;;;7.97;97.55;102553.88;4950117;28;20030;-71
2023/05/26 04:05:21;;;;;;;25.33;5.10;;;;;;;7.95;97.99;102559.13;4965053;28;20042;-71
2023/05/26 04:07:46;;;;;;;37.40;5.75;;;;;;;7.98;98.26;102558.91;4966132;28;20081;-71
2023/05/26 04:10:13;;;;;;;46.05;7.70;;;;;;;8.02;98.14;102556.16;4965631;28;20519;-71
2023/05/26 04:12:39;;;;;;;32.60;6.47;;;;;;;8.05;98.14;102555.97;4962046;28;20613;-68
2023/05/26 04:15:06;;;;;;;31.00;4.95;;;;;;;8.10;97.53;102565.09;4967338;28;20049;-68
2023/05/26 04:17:31;;;;;;;43.25;7.25;;;;;;;8.03;98.13;102560.41;4968315;28;20535;-71
2023/05/26 04:19:56;;;;;;;34.58;5.78;;;;;;;8.05;98.40;102553.38;4960834;28;20046;-70
2023/05/26 04:22:23;;;;;;;24.77;5.35;;;;;;;8.09;98.75;102557.44;4978469;28;20511;-71
2023/05/26 04:24:49;;;;;;;35.70;5.20;;;;;;;8.13;98.81;102558.88;4960711;28;20045;-70
2023/05/26 04:27:24;;;;;;;34.97;6.07;;;;;;;8.13;98.36;102562.28;4948809;28;20057;-71
2023/05/26 04:29:58;;;;;;;30.48;5.53;;;;;;;8.20;98.48;102565.34;4976343;28;20401;-71
2023/05/26 04:32:37;;;;;;;50.95;6.88;;;;;;;8.15;98.22;102569.94;4965845;28;20157;-70
2023/05/26 04:35:10;;;;;;;37.75;5.82;;;;;;;8.14;98.53;102576.88;4962002;28;20042;-71
2023/05/26 04:37:38;;;;;;;28.70;5.50;;;;;;;8.14;98.57;102569.13;4973516;28;20096;-68
2023/05/26 04:40:06;;;;;;;40.05;6.55;;;;;;;8.17;99.08;102568.94;4961135;28;20519;-68
2023/05/26 04:42:34;;;;;;;31.13;6.40;;;;;;;8.26;98.71;102571.88;4976824;28;20023;-68
2023/05/26 04:45:00;;;;;;;40.55;7.05;;;;;;;8.33;98.59;102573.97;4963481;28;20042;-68
2023/05/26 04:47:27;;;;;;;40.22;7.10;;;;;;;8.47;97.38;102564.53;4962712;28;20054;-71
2023/05/26 04:49:53;;;;;;;36.67;8.27;;;;;;;8.50;97.64;102564.34;4972619;28;20039;-70
2023/05/26 04:52:18;;;;;;;36.60;8.60;;;;;;;8.55;97.27;102568.28;4967666;28;20057;-71
2023/05/26 04:54:44;;;;;;;37.05;8.55;;;;;;;8.67;97.19;102574.41;4975114;28;20043;-71
2023/05/26 04:57:10;;;;;;;34.50;8.38;;;;;;;8.62;97.00;102568.69;4949216;28;20053;-71
2023/05/26 04:59:46;;;;;;;50.83;10.75;;;;;;;8.66;95.95;102570.13;4975705;28;20046;-71
2023/05/26 05:02:14;;;;;;;51.05;10.32;;;;;;;8.64;95.68;102566.00;4946814;28;20035;-68
2023/05/26 05:05:09;;;;;;;41.70;8.32;;;;;;;8.70;96.44;102568.19;4960793;28;20049;-69
2023/05/26 05:07:35;;;;;;;49.50;9.55;;;;;;;8.76;96.18;102572.97;4965204;28;20034;-69
2023/05/26 05:10:01;;;;;;;47.50;10.73;;;;;;;8.84;95.70;102572.47;4960904;28;20054;-69
2023/05/26 05:12:29;;;;;;;42.45;10.60;;;;;;;8.79;95.45;102567.59;4977220;28;20034;-71
2023/05/26 05:14:54;;;;;;;50.22;10.70;;;;;;;8.85;94.96;102572.34;4964836;28;20085;-72
2023/05/26 05:17:21;;;;;;;40.38;10.25;;;;;;;8.83;95.32;102571.63;4962672;28;20113;-72
2023/05/26 05:19:46;;;;;;;40.63;10.80;;;;;;;8.90;95.43;102569.47;4965719;28;20477;-69
2023/05/26 05:22:13;;;;;;;46.78;11.88;;;;;;;9.00;94.88;102573.09;4980127;28;20035;-71
2023/05/26 05:24:38;;;;;;;41.35;11.27;;;;;;;9.03;94.60;102579.84;4943850;28;20056;-72
2023/05/26 05:27:05;;;;;;;45.85;10.50;;;;;;;9.13;94.23;102584.28;4974507;28;20050;-69
2023/05/26 05:29:30;;;;;;;48.00;11.10;;;;;;;9.16;93.57;102588.44;4974957;28;20066;-72
2023/05/26 05:31:59;;;;;;;39.53;11.55;;;;;;;9.13;93.68;102584.28;4964230;28;20037;-72
2023/05/26 05:34:26;;;;;;;53.50;12.50;;;;;;;9.24;93.06;102587.91;4980232;28;20244;-69
2023/05/26 05:36:52;;;;;;;52.72;11.30;;;;;;;9.25;92.64;102585.22;4975348;28;20100;-70
2023/05/26 05:39:18;;;;;;;42.30;11.50;;;;;;;9.31;92.89;102581.41;4962782;28;20050;-70
2023/05/26 05:41:43;;;;;;;54.33;11.27;;;;;;;9.31;92.59;102582.22;4950304;28;20030;-70
2023/05/26 05:44:09;;;;;;;44.88;9.70;;;;;;;9.29;92.41;102591.84;4959079;28;20356;-70
2023/05/26 05:46:34;;;;;;;54.53;11.88;;;;;;;9.29;91.94;102596.22;4977869;28;20026;-70
2023/05/26 05:49:13;;;;;;;48.30;12.52;;;;;;;9.38;92.15;102597.31;4953540;28;20047;-70
2023/05/26 05:51:42;;;;;;;44.63;11.50;;;;;;;9.40;91.67;102609.25;4942634;28;20066;-70
2023/05/26 05:54:08;;;;;;;52.50;12.40;;;;;;;9.47;91.42;102602.69;4954255;28;20397;-70
2023/05/26 05:56:34;;;;;;;41.80;10.70;;;;;;;9.52;91.43;102607.59;4946650;28;20019;-70
2023/05/26 05:59:00;;;;;;;50.85;11.93;;;;;;;9.66;91.18;102611.81;4950198;28;20047;-70
2023/05/26 06:01:26;;;;;;;45.88;10.70;;;;;;;9.64;89.88;102617.09;4944334;28;20476;-70
2023/05/26 06:03:52;;;;;;;42.22;10.85;;;;;;;9.70;90.19;102616.69;4956002;28;20039;-70
2023/05/26 06:06:17;;;;;;;47.35;11.48;;;;;;;9.68;90.10;102617.69;4941961;28;20031;-70
2023/05/26 06:08:43;;;;;;;43.53;11.57;;;;;;;9.84;90.07;102622.66;4969475;28;20121;-70
2023/05/26 06:11:08;;;;;;;48.90;11.50;;;;;;;9.81;89.00;102634.06;4972829;28;20038;-70
2023/05/26 06:13:39;;;;;;;46.25;11.35;;;;;;;9.85;89.41;102622.56;4957786;28;20043;-70
2023/05/26 06:16:06;;;;;;;47.75;10.48;;;;;;;9.89;88.46;102636.97;4956490;28;20578;-70
2023/05/26 06:18:31;;;;;;;52.97;11.98;;;;;;;9.90;89.37;102630.81;4942975;28;20062;-70
2023/05/26 06:20:56;;;;;;;50.35;13.07;;;;;;;9.94;88.68;102624.53;4945021;28;20027;-70
2023/05/26 06:23:22;;;;;;;49.35;12.35;;;;;;;10.02;88.09;102633.50;4956708;28;20058;-70
2023/05/26 06:25:48;;;;;;;60.88;19.17;;;;;;;9.90;87.92;102640.38;4955338;28;20035;-71
2023/05/26 06:28:19;;;;;;;66.57;20.83;;;;;;;9.80;88.81;102637.59;4955515;28;20046;-71
2023/05/26 06:30:45;;;;;;;51.15;17.67;;;;;;;9.80;88.42;102634.19;4942951;28;20027;-70
2023/05/26 06:33:30;;;;;;;48.05;16.85;;;;;;;10.11;88.58;102632.84;4955821;28;20062;-70
2023/05/26 06:35:58;;;;;;;49.03;16.67;;;;;;;10.47;88.47;102626.84;4957933;28;20023;-70
2023/05/26 06:38:23;;;;;;;60.90;15.68;;;;;;;10.90;86.96;102636.66;4956992;28;20047;-70
2023/05/26 06:40:50;;;;;;;64.25;18.00;;;;;;;11.15;85.28;102629.69;4955738;28;20058;-70
2023/05/26 06:43:16;;;;;;;45.55;12.95;;;;;;;11.31;84.46;102626.75;4957458;28;20140;-70
2023/05/26 06:45:42;;;;;;;58.53;15.90;;;;;;;11.35;83.75;102627.34;4951231;28;20031;-70
2023/05/26 06:48:08;;;;;;;57.08;13.95;;;;;;;11.36;81.99;102639.34;4954431;28;20391;-71
2023/05/26 06:50:38;;;;;;;60.50;16.30;;;;;;;11.72;81.85;102632.31;4960801;28;20555;-70
2023/05/26 06:53:03;;;;;;;48.35;14.27;;;;;;;12.06;78.54;102635.72;4937575;28;20035;-71
2023/05/26 06:55:29;;;;;;;50.67;11.93;;;;;;;12.10;76.72;102642.34;4943166;28;20451;-71
2023/05/26 06:57:55;;;;;;;51.47;12.35;;;;;;;12.42;76.31;102637.16;4942056;28;20050;-71
2023/05/26 07:00:21;;;;;;;31.38;10.73;;;;;;;13.09;74.10;102642.19;4959552;28;20035;-71
2023/05/26 07:02:48;;;;;;;44.22;9.73;;;;;;;13.01;73.76;102635.81;4960387;28;20105;-71
2023/05/26 07:05:22;;;;;;;40.42;9.07;;;;;;;13.17;72.69;102629.34;4945845;28;20541;-70
2023/05/26 07:07:47;;;;;;;39.72;10.60;;;;;;;13.65;70.53;102638.38;4960720;28;20109;-71
2023/05/26 07:10:14;;;;;;;40.70;8.80;;;;;;;14.15;68.62;102639.22;4941593;28;20069;-71
2023/05/26 07:12:41;;;;;;;46.17;8.85;;;;;;;14.16;66.62;102646.06;4975553;28;20035;-71
2023/05/26 07:15:23;;;;;;;;;;;;;;;13.80;69.37;102653.50;4950500;28;20039;-71
2023/05/26 07:17:49;;;;;;;35.25;8.65;;;;;;;13.80;68.57;102642.28;4960826;28;19920;-71
2023/05/26 07:20:14;;;;;;;33.53;7.68;;;;;;;14.36;67.96;102646.09;4956919;28;20031;-70
2023/05/26 07:22:43;;;;;;;30.90;7.68;;;;;;;14.67;nan;102640.78;4961974;28;20065;-70
2023/05/26 07:25:16;;;;;;;36.28;7.88;;;;;;;14.66;65.50;102637.34;4961760;28;20030;-71
2023/05/26 07:27:47;;;;;;;37.97;7.82;;;;;;;15.14;63.62;102639.06;4964106;28;20468;-71
2023/05/26 07:30:13;;;;;;;33.83;7.50;;;;;;;15.70;61.54;102639.13;4965252;28;20137;-71
2023/05/26 07:33:11;;;;;;;26.20;6.53;;;;;;;15.95;60.43;102643.72;4972350;28;20050;-71
2023/05/26 07:35:37;;;;;;;33.75;9.10;;;;;;;16.12;59.88;102636.88;4979823;28;20037;-71
2023/05/26 07:38:03;;;;;;;40.28;8.57;;;;;;;16.16;58.89;102639.97;4952137;28;20104;-72
2023/05/26 07:40:29;;;;;;;36.88;7.50;;;;;;;16.33;58.07;102638.34;4962433;28;20038;-71
2023/05/26 07:42:55;;;;;;;38.63;7.78;;;;;;;16.09;58.89;102639.75;4965992;28;20121;-71
2023/05/26 07:45:20;;;;;;;34.72;7.88;;;;;;;16.24;58.21;102634.84;4980260;28;20277;-72
2023/05/26 07:47:46;;;;;;;32.58;6.90;;;;;;;16.54;58.95;102624.97;4979365;28;20440;-71
2023/05/26 07:50:13;;;;;;;37.47;7.32;;;;;;;16.15;57.42;102636.53;4950782;28;20061;-71
2023/05/26 07:52:38;;;;;;;34.17;6.15;;;;;;;16.30;57.35;102626.38;4977698;28;20039;-71
2023/05/26 07:55:04;;;;;;;28.70;6.28;;;;;;;16.15;57.76;102630.50;4963391;28;20050;-71
2023/05/26 07:57:29;;;;;;;44.42;7.60;;;;;;;15.77;58.79;102617.50;4961930;28;20034;-71
2023/05/26 07:59:55;;;;;;;33.45;7.10;;;;;;;16.00;58.75;102629.38;4963147;28;20050;-72
2023/05/26 08:02:20;;;;;;;27.67;6.13;;;;;;;16.36;58.59;102624.97;4982575;28;20061;-71
2023/05/26 08:04:46;;;;;;;27.40;6.57;;;;;;;16.77;57.18;102625.31;4977585;28;20440;-71
2023/05/26 08:07:11;;;;;;;39.30;6.38;;;;;;;16.87;56.23;102626.03;4961243;28;20514;-71
2023/05/26 08:09:37;;;;;;;30.92;5.43;;;;;;;17.49;54.73;102625.09;4979881;28;20046;-71
2023/05/26 08:12:02;;;;;;;31.20;5.45;;;;;;;17.68;52.82;102630.06;4963961;28;20427;-71
2023/05/26 08:14:28;;;;;;;28.30;7.53;;;;;;;17.83;52.08;102632.91;4949686;28;20386;-71
2023/05/26 08:16:53;;;;;;;32.40;6.20;;;;;;;17.88;51.37;102635.09;4978800;28;20035;-72
2023/05/26 08:19:19;;;;;;;29.92;4.80;;;;;;;17.71;51.68;102635.00;4960696;28;20046;-71
2023/05/26 08:21:44;;;;;;;33.42;5.72;;;;;;;17.87;51.85;102634.25;4963051;28;20397;-71
2023/05/26 08:24:10;;;;;;;28.58;6.25;;;;;;;17.89;51.40;102628.84;4980359;28;20046;-71
2023/05/26 08:26:35;;;;;;;27.92;5.75;;;;;;;18.08;52.54;102622.50;4979513;28;20038;-71
2023/05/26 08:29:01;;;;;;;23.27;5.05;;;;;;;17.83;52.04;102638.16;4977704;28;20077;-71
2023/05/26 08:31:26;;;;;;;29.25;5.82;;;;;;;17.94;51.70;102628.38;4965436;28;20397;-72
2023/05/26 08:33:53;;;;;;;24.77;5.63;;;;;;;18.13;50.71;102628.09;4963996;28;20058;-71
2023/05/26 08:36:19;;;;;;;30.30;6.43;;;;;;;18.21;51.29;102628.09;4965231;28;20038;-71
2023/05/26 08:38:45;;;;;;;32.33;5.72;;;;;;;18.57;50.51;102637.47;4963196;28;20545;-71
2023/05/26 08:41:17;;;;;;;32.88;6.57;;;;;;;18.19;50.63;102637.94;4962585;28;20510;-71
2023/05/26 08:43:50;;;;;;;34.97;6.35;;;;;;;18.20;50.72;102631.72;4958446;28;20563;-71
2023/05/26 08:46:16;;;;;;;;;;;;;;;18.45;50.56;102627.28;4959791;28;20042;-71
2023/05/26 08:48:41;;;;;;;24.40;5.82;;;;;;;18.36;51.49;102633.50;4958286;28;19926;-71
2023/05/26 08:51:11;;;;;;;28.50;5.18;;;;;;;18.47;51.20;102629.75;4961046;28;20603;-71
2023/05/26 08:53:39;;;;;;;24.15;5.82;;;;;;;18.78;50.34;102624.66;4954120;28;20050;-72
2023/05/26 08:56:07;;;;;;;25.40;5.40;;;;;;;18.69;49.89;102615.13;4947584;28;20490;-71
2023/05/26 08:58:34;;;;;;;30.40;6.15;;;;;;;18.75;49.97;102621.53;4959486;28;20050;-71
2023/05/26 09:01:03;;;;;;;32.95;5.43;;;;;;;18.52;51.76;102614.31;4959176;28;20030;-71
2023/05/26 09:03:29;;;;;;;27.35;6.47;;;;;;;18.60;50.36;102619.56;4957299;28;20058;-71
2023/05/26 09:05:55;;;;;;;23.45;5.55;;;;;;;18.60;49.26;102606.44;4959401;28;20369;-71
2023/05/26 09:08:21;;;;;;;27.48;5.70;;;;;;;18.78;49.67;102611.50;4951375;28;20099;-71
2023/05/26 09:10:46;;;;;;;30.38;6.03;;;;;;;18.79;49.97;102615.78;4958031;28;20038;-71
2023/05/26 09:13:14;;;;;;;24.75;5.47;;;;;;;19.14;49.83;102620.84;4959803;28;20488;-71
2023/05/26 09:15:40;;;;;;;26.55;4.85;;;;;;;19.14;49.95;102620.84;4957815;28;20071;-71
2023/05/26 09:18:11;;;;;;;32.97;5.93;;;;;;;18.90;48.90;102614.63;4959789;28;20123;-72
2023/05/26 09:20:48;;;;;;;31.95;6.75;;;;;;;18.73;49.99;102620.88;4960936;28;20441;-71
2023/05/26 09:23:15;;;;;;;27.83;5.35;;;;;;;19.00;48.40;102619.72;4976926;28;20258;-71
2023/05/26 09:25:42;;;;;;;25.40;5.30;;;;;;;19.32;48.21;102610.91;4958370;28;20065;-71
2023/05/26 09:28:09;;;;;;;29.42;5.88;;;;;;;18.52;48.16;102616.94;4957378;28;20045;-72
2023/05/26 09:30:45;;;;;;;28.58;7.07;;;;;;;18.09;50.20;102622.34;4973160;28;20102;-71
2023/05/26 09:33:12;;;;;;;29.25;6.03;;;;;;;18.51;50.43;102627.63;4939894;28;20058;-71
2023/05/26 09:35:40;;;;;;;29.23;5.72;;;;;;;18.92;49.11;102623.19;4956171;28;20708;-71
2023/05/26 09:38:08;;;;;;;25.50;5.20;;;;;;;18.98;48.58;102635.63;4955107;28;20027;-71
2023/05/26 09:40:33;;;;;;;25.95;5.10;;;;;;;19.18;48.66;102625.59;4956900;28;20061;-70
2023/05/26 09:43:00;;;;;;;36.10;6.03;;;;;;;19.34;47.88;102637.03;4959443;28;20117;-71
2023/05/26 09:45:26;;;;;;;27.08;5.93;;;;;;;19.47;48.09;102634.69;4954873;28;20046;-71
2023/05/26 09:47:56;;;;;;;30.58;6.47;;;;;;;19.52;49.07;102627.09;4974764;28;20034;-71
2023/05/26 09:50:22;;;;;;;27.77;5.88;;;;;;;19.84;47.34;102627.97;4958107;28;20576;-71
2023/05/26 09:52:49;;;;;;;29.65;5.72;;;;;;;19.22;47.90;102633.94;4939420;28;20051;-73
2023/05/26 09:55:15;;;;;;;25.05;5.35;;;;;;;19.24;48.32;102629.34;4945140;28;20042;-71
2023/05/26 09:57:43;;;;;;;26.05;5.88;;;;;;;19.39;48.77;102627.63;4956360;28;20420;-71
2023/05/26 10:00:10;;;;;;;23.08;5.53;;;;;;;19.78;47.04;102615.50;4958955;28;20055;-71
2023/05/26 10:02:36;;;;;;;26.58;6.32;;;;;;;19.43;47.57;102605.25;4977329;28;20038;-70
2023/05/26 10:05:03;;;;;;;35.33;6.38;;;;;;;19.34;48.78;102608.09;4981288;28;20085;-71
2023/05/26 10:07:30;;;;;;;23.38;4.93;;;;;;;19.41;48.30;102611.69;4978208;28;20054;-71
2023/05/26 10:10:00;;;;;;;25.83;4.28;;;;;;;19.43;48.46;102615.78;4944108;28;20047;-70
2023/05/26 10:12:33;;;;;;;27.48;5.13;;;;;;;19.78;47.31;102608.41;4960585;28;20043;-70
2023/05/26 10:15:00;;;;;;;28.05;5.38;;;;;;;19.93;47.81;102608.50;4958221;28;20078;-70
2023/05/26 10:17:26;;;;;;;21.33;4.95;;;;;;;19.91;46.03;102605.22;4957732;28;20493;-70
2023/05/26 10:19:53;;;;;;;24.95;5.30;;;;;;;20.13;46.19;102614.09;4977818;28;20497;-71
2023/05/26 10:22:50;;;;;;;22.88;4.70;;;;;;;19.92;47.57;102606.84;4980214;28;20049;-71
2023/05/26 10:25:40;;;;;;;25.30;5.90;;;;;;;19.80;47.08;102603.81;4957784;28;20058;-71
2023/05/26 10:28:19;;;;;;;26.80;5.65;;;;;;;19.75;48.30;102611.38;4977262;28;20349;-71
2023/05/26 10:30:45;;;;;;;25.30;5.82;;;;;;;19.88;46.75;102597.66;4965708;28;20064;-71
2023/05/26 10:33:15;;;;;;;23.15;5.75;;;;;;;19.91;47.21;102607.84;4980702;28;20053;-71
2023/05/26 10:35:54;;;;;;;27.17;6.28;;;;;;;19.81;47.06;102609.88;4982253;28;20042;-71
2023/05/26 10:38:26;;;;;;;25.58;5.25;;;;;;;19.71;48.42;102599.53;4967055;28;20097;-71
2023/05/26 10:40:51;;;;;;;30.23;6.30;;;;;;;19.62;47.87;102598.75;4977695;28;20129;-71
2023/05/26 10:43:21;;;;;;;24.30;5.93;;;;;;;19.66;48.20;102591.34;4966382;28;20061;-71
2023/05/26 10:46:01;;;;;;;28.38;5.90;;;;;;;19.91;47.06;102591.22;4966196;28;20362;-71
2023/05/26 10:48:40;;;;;;;24.05;5.70;;;;;;;20.09;48.38;102601.47;4976222;28;20073;-72
2023/05/26 10:51:14;;;;;;;37.05;6.43;;;;;;;19.82;47.22;102587.84;4980111;28;20042;-72
2023/05/26 10:53:45;;;;;;;22.85;5.90;;;;;;;19.79;47.43;102588.19;4971163;28;20058;-71
2023/05/26 10:56:13;;;;;;;31.27;5.45;;;;;;;19.65;46.49;102584.44;4963723;28;20034;-72
2023/05/26 10:58:40;;;;;;;26.13;6.28;;;;;;;19.53;49.30;102591.09;4940276;28;20062;-71
2023/05/26 11:01:08;;;;;;;24.75;5.65;;;;;;;19.77;48.30;102598.88;4958168;28;20034;-72
2023/05/26 11:03:40;;;;;;;30.58;6.10;;;;;;;19.84;48.38;102588.47;4954692;28;20043;-71
2023/05/26 11:06:07;;;;;;;24.98;5.88;;;;;;;19.88;48.48;102588.97;4975442;28;20045;-71
2023/05/26 11:08:56;;;;;;;26.67;4.38;;;;;;;19.62;46.89;102590.88;4971032;28;20393;-72
2023/05/26 11:11:29;;;;;;;26.52;6.07;;;;;;;19.43;49.20;102580.78;4955366;28;20134;-71
2023/05/26 11:14:24;;;;;;;26.85;6.28;;;;;;;19.69;48.90;102584.94;4951579;28;20133;-71
2023/05/26 11:16:51;;;;;;;28.42;5.70;;;;;;;19.50;49.66;102597.53;4961222;28;20070;-73
2023/05/26 11:19:30;;;;;;;29.73;5.85;;;;;;;19.63;49.05;102583.81;4958724;28;20105;-71
2023/05/26 11:21:57;;;;;;;30.88;5.20;;;;;;;19.45;46.51;102586.69;4967040;28;20494;-72
2023/05/26 11:24:23;;;;;;;24.17;5.55;;;;;;;19.28;48.80;102580.69;4977121;28;20492;-71